Terminal Aerodrome Forecast
Issued by NWS Northern Indiana

Home | Current Version | Previous Version | Text Only | Print | Product List | Glossary Off
Versions: 1 2 3 4 5 6 7 8 9 10 11 12 13 14 15

000
FTUS43 KIWX 280520
TAFFWA
TAF
KFWA 280520Z 2806/2906 17005KT P6SM BKN200
     FM281200 VRB04KT P6SM VCSH OVC080
     FM290000 05005KT P6SM VCSH OVC025
     FM290300 05008KT P6SM VCSH BKN010 OVC030=

USA.gov is the U.S. government's official web portal to all federal, state and local government web resources and services.